Time;durP1;ratioP1;P1;durP2;ratioP2;P2;SDS_P1;SDS_P2;PMS_P1;PMS_P2;Temp;Humidity;BMP_temperature;BMP_pressure;BME280_temperature;BME280_humidity;BME280_pressure;Samples;Min_cycle;Max_cycle;Signal;HPM_P1;HPM_P2
2023/05/28 00:01:23;;;;;;;4.05;1.65;;;;;;;10.71;100.00;101252.81;5211936;28;20406;-72
2023/05/28 00:03:53;;;;;;;5.45;1.92;;;;;;;10.51;100.00;101255.94;5212305;28;20120;-71
2023/05/28 00:06:24;;;;;;;6.22;1.90;;;;;;;10.53;100.00;101261.13;5215454;28;20052;-71
2023/05/28 00:08:54;;;;;;;4.35;1.90;;;;;;;10.42;100.00;101266.63;5209927;28;20032;-71
2023/05/28 00:11:25;;;;;;;4.18;1.75;;;;;;;10.24;100.00;101260.94;5216430;28;20104;-72
2023/05/28 00:13:56;;;;;;;4.78;1.88;;;;;;;10.43;100.00;101262.22;5215052;28;20384;-72
2023/05/28 00:16:27;;;;;;;3.22;1.80;;;;;;;10.42;100.00;101263.13;5212291;28;20514;-72
2023/05/28 00:18:57;;;;;;;4.80;1.80;;;;;;;10.29;100.00;101270.41;5184212;28;20131;-71
2023/05/28 00:21:27;;;;;;;4.10;2.00;;;;;;;10.37;100.00;101265.00;5208942;28;20079;-72
2023/05/28 00:23:58;;;;;;;6.85;2.13;;;;;;;10.44;100.00;101274.41;5209119;28;20470;-73
2023/05/28 00:26:30;;;;;;;3.78;1.83;;;;;;;10.20;100.00;101264.53;5192114;28;20037;-72
2023/05/28 00:29:00;;;;;;;4.72;2.15;;;;;;;10.15;100.00;101267.25;5211574;28;20172;-72
2023/05/28 00:31:30;;;;;;;4.13;2.03;;;;;;;10.03;100.00;101266.66;5213951;28;20020;-72
2023/05/28 00:34:01;;;;;;;6.38;1.95;;;;;;;10.11;100.00;101265.59;5211886;28;20937;-70
2023/05/28 00:36:31;;;;;;;9.30;2.55;;;;;;;10.28;100.00;101257.38;5213889;28;20032;-72
2023/05/28 00:39:04;;;;;;;5.50;1.90;;;;;;;10.31;99.84;101255.56;5214491;28;20502;-72
2023/05/28 00:41:36;;;;;;;4.30;1.90;;;;;;;10.10;100.00;101248.22;5213533;28;20529;-72
2023/05/28 00:44:08;;;;;;;4.97;1.95;;;;;;;9.99;100.00;101254.56;5216903;28;20035;-71
2023/05/28 00:46:42;;;;;;;3.13;1.75;;;;;;;9.80;100.00;101259.31;5208936;28;20061;-71
2023/05/28 00:49:13;;;;;;;4.10;1.65;;;;;;;10.00;100.00;101246.66;5218474;28;20032;-72
2023/05/28 00:51:43;;;;;;;6.13;2.10;;;;;;;10.13;100.00;101257.75;5219311;28;20021;-72
2023/05/28 00:54:13;;;;;;;5.75;1.92;;;;;;;10.07;100.00;101244.81;5219244;28;20027;-72
2023/05/28 00:56:46;;;;;;;7.68;2.00;;;;;;;10.03;100.00;101257.06;5213747;28;20032;-72
2023/05/28 00:59:17;;;;;;;5.50;2.10;;;;;;;9.79;100.00;101254.13;5218030;28;20025;-71
2023/05/28 01:01:47;;;;;;;3.20;1.80;;;;;;;9.67;100.00;101257.00;5216953;28;20395;-71
2023/05/28 01:04:17;;;;;;;5.18;1.90;;;;;;;9.64;100.00;101259.69;5214991;28;20025;-71
2023/05/28 01:06:48;;;;;;;5.60;1.90;;;;;;;9.74;100.00;101255.97;5218319;28;20047;-71
2023/05/28 01:09:19;;;;;;;4.70;1.77;;;;;;;9.70;100.00;101252.56;5218175;28;20033;-72
2023/05/28 01:11:52;;;;;;;3.15;1.55;;;;;;;9.65;100.00;101250.94;5218643;28;20478;-71
2023/05/28 01:14:24;;;;;;;3.50;1.75;;;;;;;9.72;100.00;101249.91;5215744;28;20524;-71
2023/05/28 01:16:54;;;;;;;4.38;1.90;;;;;;;9.58;100.00;101246.72;5217130;28;20037;-72
2023/05/28 01:19:26;;;;;;;5.63;2.00;;;;;;;9.62;100.00;101240.59;5219437;28;20839;-72
2023/05/28 01:22:03;;;;;;;4.40;1.98;;;;;;;9.58;100.00;101242.38;5217912;28;20111;-72
2023/05/28 01:24:39;;;;;;;3.38;1.80;;;;;;;9.44;100.00;101235.72;5219166;28;20040;-72
2023/05/28 01:27:09;;;;;;;3.47;1.60;;;;;;;9.50;100.00;101240.84;5217643;28;20037;-71
2023/05/28 01:29:39;;;;;;;7.15;1.55;;;;;;;9.52;100.00;101236.44;5218916;28;20056;-71
2023/05/28 01:32:10;;;;;;;3.80;1.52;;;;;;;9.49;100.00;101231.28;5216705;28;20025;-71
2023/05/28 01:34:40;;;;;;;3.78;1.70;;;;;;;9.49;100.00;101228.69;5216089;28;20549;-71
2023/05/28 01:37:16;;;;;;;6.55;1.80;;;;;;;9.24;100.00;101232.66;5216730;28;20623;-71
2023/05/28 01:39:50;;;;;;;6.30;2.20;;;;;;;8.94;100.00;101228.03;5217991;28;20371;-71
2023/05/28 01:42:21;;;;;;;4.18;1.95;;;;;;;8.99;100.00;101240.97;5218188;28;20040;-71
2023/05/28 01:44:54;;;;;;;4.72;1.77;;;;;;;9.03;100.00;101230.47;5215877;28;20510;-72
2023/05/28 01:47:25;;;;;;;4.88;1.75;;;;;;;9.16;100.00;101229.34;5215803;28;20036;-71
2023/05/28 01:49:56;;;;;;;4.32;1.77;;;;;;;9.31;100.00;101231.66;5218162;28;20025;-72
2023/05/28 01:52:26;;;;;;;3.92;1.63;;;;;;;9.31;100.00;101229.91;5218307;28;20013;-72
2023/05/28 01:54:56;;;;;;;5.90;2.00;;;;;;;9.40;100.00;101228.84;5217184;28;20032;-72
2023/05/28 01:57:27;;;;;;;3.42;1.60;;;;;;;9.33;100.00;101229.88;5205982;28;20029;-71
2023/05/28 01:59:57;;;;;;;5.07;1.52;;;;;;;9.26;100.00;101228.25;5217154;28;20036;-72
2023/05/28 02:02:27;;;;;;;4.25;1.45;;;;;;;9.29;100.00;101230.84;5217827;28;20021;-72
2023/05/28 02:04:58;;;;;;;4.05;1.75;;;;;;;9.22;98.50;101224.88;5214622;28;20048;-72
2023/05/28 02:07:28;;;;;;;3.80;1.70;;;;;;;8.95;100.00;101232.38;5215788;28;20394;-72
2023/05/28 02:09:58;;;;;;;3.88;1.60;;;;;;;8.84;100.00;101223.88;5215427;28;20067;-72
2023/05/28 02:12:29;;;;;;;5.43;1.60;;;;;;;8.79;100.00;101220.50;5217960;28;20422;-71
2023/05/28 02:14:59;;;;;;;4.15;1.75;;;;;;;8.94;100.00;101214.13;5217306;28;20051;-72
2023/05/28 02:17:30;;;;;;;2.88;1.40;;;;;;;8.90;100.00;101207.28;5217580;28;20226;-72
2023/05/28 02:20:01;;;;;;;3.03;1.48;;;;;;;8.83;100.00;101208.25;5217231;28;20048;-72
2023/05/28 02:22:31;;;;;;;3.58;1.42;;;;;;;8.67;100.00;101207.69;5217318;28;20680;-72
2023/05/28 02:25:01;;;;;;;3.33;1.50;;;;;;;8.52;100.00;101210.56;5214484;28;20063;-71
2023/05/28 02:27:32;;;;;;;4.03;1.17;;;;;;;8.58;100.00;101200.00;5200704;28;20048;-73
2023/05/28 02:30:03;;;;;;;2.38;1.40;;;;;;;8.56;100.00;101200.94;5213275;28;20482;-72
2023/05/28 02:32:33;;;;;;;4.22;1.70;;;;;;;8.46;100.00;101199.38;5196978;28;20701;-72
2023/05/28 02:35:04;;;;;;;3.28;1.63;;;;;;;8.60;100.00;101206.09;5216854;28;20063;-72
2023/05/28 02:37:34;;;;;;;5.68;2.10;;;;;;;8.49;100.00;101204.53;5214495;28;20053;-72
2023/05/28 02:40:05;;;;;;;4.60;2.08;;;;;;;8.56;100.00;101211.38;5216528;28;20115;-74
2023/05/28 02:42:36;;;;;;;6.57;2.03;;;;;;;8.44;100.00;101212.44;5214253;28;20035;-72
2023/05/28 02:45:07;;;;;;;3.40;1.33;;;;;;;8.22;100.00;101216.25;5215331;28;20486;-71
2023/05/28 02:47:37;;;;;;;3.90;1.45;;;;;;;8.29;100.00;101211.81;5215252;28;20523;-72
2023/05/28 02:50:08;;;;;;;4.57;1.80;;;;;;;8.68;100.00;101219.81;5214613;28;20741;-71
2023/05/28 02:52:38;;;;;;;5.43;1.85;;;;;;;8.82;100.00;101222.19;5214293;28;20028;-71
2023/05/28 02:55:09;;;;;;;4.00;1.58;;;;;;;8.59;100.00;101213.91;5215540;28;20036;-72
2023/05/28 02:57:39;;;;;;;6.85;1.92;;;;;;;8.55;100.00;101220.06;5215779;28;20025;-71
2023/05/28 03:00:10;;;;;;;3.80;1.85;;;;;;;8.72;100.00;101215.44;5217536;28;20120;-72
2023/05/28 03:02:41;;;;;;;5.75;1.92;;;;;;;8.57;100.00;101216.53;5214418;28;20025;-73
2023/05/28 03:05:11;;;;;;;4.18;1.80;;;;;;;8.54;100.00;101220.97;5210990;28;20533;-73
2023/05/28 03:07:41;;;;;;;3.47;1.63;;;;;;;8.46;100.00;101221.09;5215272;28;20033;-72
2023/05/28 03:10:12;;;;;;;4.57;1.88;;;;;;;8.60;100.00;101229.53;5216061;28;20029;-71
2023/05/28 03:12:42;;;;;;;3.63;1.70;;;;;;;8.73;100.00;101224.97;5216800;28;20387;-71
2023/05/28 03:15:14;;;;;;;2.88;1.52;;;;;;;8.89;100.00;101229.00;5216561;28;20032;-72
2023/05/28 03:17:44;;;;;;;5.45;1.77;;;;;;;8.84;99.89;101229.09;5216269;28;20126;-72
2023/05/28 03:20:14;;;;;;;5.10;1.80;;;;;;;8.94;98.87;101225.44;5216766;28;20068;-72
2023/05/28 03:22:47;;;;;;;5.47;2.15;;;;;;;8.86;99.71;101223.88;5211139;28;20617;-70
2023/05/28 03:25:17;;;;;;;5.20;1.60;;;;;;;8.59;100.00;101227.78;5216499;28;20394;-72
2023/05/28 03:27:47;;;;;;;4.15;1.75;;;;;;;8.69;100.00;101228.50;5215266;28;20025;-71
2023/05/28 03:30:18;;;;;;;3.85;1.65;;;;;;;8.42;100.00;101227.22;5215977;28;20087;-72
2023/05/28 03:32:49;;;;;;;4.10;1.73;;;;;;;8.56;100.00;101227.00;5215722;28;20518;-71
2023/05/28 03:35:19;;;;;;;4.60;1.67;;;;;;;8.47;100.00;101222.81;5216670;28;20029;-71
2023/05/28 03:40:30;;;;;;;3.47;1.70;;;;;;;8.33;100.00;101229.09;5194453;28;20049;-72
2023/05/28 03:43:01;;;;;;;3.38;1.73;;;;;;;8.42;100.00;101239.38;5195289;28;20033;-73
2023/05/28 03:45:31;;;;;;;6.55;2.00;;;;;;;8.33;100.00;101235.19;5197110;28;20040;-74
2023/05/28 03:48:02;;;;;;;6.72;1.85;;;;;;;8.68;100.00;101232.84;5197426;28;20108;-73
2023/05/28 03:50:33;;;;;;;6.20;1.80;;;;;;;8.73;100.00;101228.41;5216887;28;20021;-72
2023/05/28 03:53:03;;;;;;;7.05;1.85;;;;;;;8.61;100.00;101231.25;5211550;28;20027;-73
2023/05/28 03:55:35;;;;;;;4.95;1.70;;;;;;;8.72;100.00;101221.47;5214978;28;20043;-71
2023/05/28 03:58:06;;;;;;;4.32;1.60;;;;;;;8.61;100.00;101232.97;5213106;28;20573;-70
2023/05/28 04:00:36;;;;;;;5.57;1.70;;;;;;;8.78;100.00;101229.22;5216638;28;20487;-70
2023/05/28 04:03:06;;;;;;;3.65;1.90;;;;;;;9.10;100.00;101221.63;5214935;28;20033;-71
2023/05/28 04:05:37;;;;;;;17.10;6.47;;;;;;;9.08;100.00;101218.19;5214284;28;20497;-71
2023/05/28 04:08:07;;;;;;;7.38;3.38;;;;;;;8.96;100.00;101223.66;5205268;28;20162;-70
2023/05/28 04:10:37;;;;;;;7.30;2.92;;;;;;;8.99;100.00;101234.03;5216034;28;20068;-72
2023/05/28 04:13:07;;;;;;;4.75;2.38;;;;;;;9.47;100.00;101225.25;5219276;28;20029;-71
2023/05/28 04:15:38;;;;;;;4.78;2.25;;;;;;;9.87;100.00;101223.47;5214864;28;20033;-72
2023/05/28 04:18:08;;;;;;;3.60;1.80;;;;;;;9.91;99.41;101215.56;5212029;28;20041;-71
2023/05/28 04:20:38;;;;;;;4.95;2.00;;;;;;;10.00;99.08;101223.16;5220665;28;20029;-71
2023/05/28 04:23:09;;;;;;;5.80;2.30;;;;;;;9.59;100.00;101222.34;5216750;28;20387;-71
2023/05/28 04:25:39;;;;;;;7.03;1.92;;;;;;;9.63;100.00;101224.03;5219838;28;20020;-71
2023/05/28 04:28:11;;;;;;;4.35;1.92;;;;;;;10.13;100.00;101215.97;5215148;28;20044;-70
2023/05/28 04:30:41;;;;;;;5.70;2.25;;;;;;;10.00;100.00;101215.31;5219607;28;20120;-71
2023/05/28 04:33:11;;;;;;;5.28;2.00;;;;;;;10.46;100.00;101213.38;5218732;28;20100;-71
2023/05/28 04:35:42;;;;;;;6.30;2.03;;;;;;;10.69;99.81;101212.81;5220537;28;20457;-71
2023/05/28 04:38:12;;;;;;;4.35;2.20;;;;;;;10.93;94.97;101218.25;5216329;28;20422;-72
2023/05/28 04:40:42;;;;;;;5.63;2.35;;;;;;;12.11;91.42;101212.13;5220720;28;20029;-72
2023/05/28 04:43:13;;;;;;;5.50;1.80;;;;;;;13.71;82.97;101202.97;5201403;28;20079;-72
2023/05/28 04:45:43;;;;;;;4.38;1.90;;;;;;;14.55;76.65;101196.91;5221117;28;20108;-72
2023/05/28 04:48:13;;;;;;;3.88;1.75;;;;;;;15.28;77.16;101188.41;5213739;28;20033;-72
2023/05/28 04:50:44;;;;;;;3.08;1.70;;;;;;;16.52;72.03;101182.44;5220946;28;20022;-72
2023/05/28 04:53:14;;;;;;;4.95;1.70;;;;;;;16.93;66.87;101186.44;5219730;28;20021;-73
2023/05/28 04:55:44;;;;;;;3.25;1.63;;;;;;;16.85;70.63;101191.28;5219546;28;20116;-73
2023/05/28 04:58:15;;;;;;;5.80;1.88;;;;;;;18.15;67.68;101177.97;5217591;28;20398;-72
2023/05/28 05:00:45;;;;;;;5.00;1.60;;;;;;;18.74;64.71;101182.38;5220880;28;20036;-73
2023/05/28 05:03:16;;;;;;;3.55;1.70;;;;;;;18.47;67.64;101184.91;5212908;28;20051;-73
2023/05/28 05:05:47;;;;;;;3.40;1.47;;;;;;;18.81;63.16;101186.38;5217145;28;20020;-73
2023/05/28 05:08:17;;;;;;;3.47;1.67;;;;;;;19.25;60.50;101187.22;5206856;28;20625;-72
2023/05/28 05:10:48;;;;;;;2.70;1.40;;;;;;;19.32;64.09;101183.25;5198471;28;20041;-73
2023/05/28 05:13:19;;;;;;;4.63;1.83;;;;;;;20.24;59.30;101183.47;5205980;28;20310;-72
2023/05/28 05:15:50;;;;;;;6.40;1.48;;;;;;;21.06;57.71;101188.47;5203024;28;20055;-71
2023/05/28 05:18:20;;;;;;;3.20;1.58;;;;;;;21.31;58.67;101192.94;5218684;28;20029;-71
2023/05/28 05:20:50;;;;;;;3.53;1.38;;;;;;;21.37;59.61;101184.56;5212055;28;20021;-72
2023/05/28 05:23:21;;;;;;;5.85;1.73;;;;;;;21.76;57.99;101185.25;5205624;28;20123;-71
2023/05/28 05:25:51;;;;;;;6.50;1.70;;;;;;;20.98;59.09;101185.50;5218423;28;20087;-71
2023/05/28 05:28:21;;;;;;;4.10;1.75;;;;;;;21.17;59.84;101185.94;5205474;28;20027;-71
2023/05/28 05:30:52;;;;;;;3.40;1.70;;;;;;;21.69;57.94;101183.13;5216706;28;20043;-72
2023/05/28 05:33:22;;;;;;;3.83;1.85;;;;;;;21.65;57.06;101184.31;5202099;28;20197;-69
2023/05/28 05:35:52;;;;;;;3.85;1.95;;;;;;;21.88;58.42;101188.84;5198892;28;20474;-72
2023/05/28 05:38:23;;;;;;;6.32;1.98;;;;;;;20.57;61.48;101191.88;5218628;28;20025;-71
2023/05/28 05:40:53;;;;;;;5.93;2.13;;;;;;;19.92;65.51;101195.28;5217575;28;20024;-69
2023/05/28 05:43:23;;;;;;;5.00;1.87;;;;;;;21.61;61.76;101185.47;5209577;28;20091;-71
2023/05/28 05:45:53;;;;;;;4.68;2.55;;;;;;;19.99;64.41;101185.13;5190095;28;20676;-70
2023/05/28 05:48:27;;;;;;;6.43;2.00;;;;;;;20.40;64.62;101180.66;5218586;28;20035;-71
2023/05/28 05:50:58;;;;;;;5.30;2.38;;;;;;;20.04;64.42;101189.25;5218340;28;20904;-72
2023/05/28 05:53:28;;;;;;;4.22;2.15;;;;;;;19.75;66.39;101189.38;5217025;28;20039;-72
2023/05/28 05:55:59;;;;;;;5.55;2.25;;;;;;;19.29;67.93;101187.88;5218113;28;20028;-71
2023/05/28 05:58:31;;;;;;;6.85;1.70;;;;;;;19.20;68.23;101184.00;5217709;28;20040;-71
2023/05/28 06:01:01;;;;;;;5.75;2.13;;;;;;;18.88;67.74;101194.78;5217087;28;20371;-72
2023/05/28 06:03:32;;;;;;;5.57;2.20;;;;;;;18.70;69.34;101193.22;5210994;28;20212;-72
2023/05/28 06:06:02;;;;;;;5.10;1.90;;;;;;;18.69;69.07;101196.81;5215647;28;20064;-72
2023/05/28 06:08:33;;;;;;;4.05;1.98;;;;;;;18.98;67.84;101188.88;5217845;28;20044;-71
2023/05/28 06:11:03;;;;;;;6.03;2.20;;;;;;;18.22;70.45;101184.59;5194878;28;20048;-71
2023/05/28 06:13:35;;;;;;;4.93;2.28;;;;;;;18.38;69.38;101188.13;5217694;28;20558;-71
2023/05/28 06:16:06;;;;;;;7.38;2.00;;;;;;;18.73;67.60;101193.91;5217224;28;20025;-71
2023/05/28 06:18:36;;;;;;;4.25;1.70;;;;;;;19.13;65.77;101187.91;5217272;28;20098;-70
2023/05/28 06:21:07;;;;;;;6.05;2.17;;;;;;;18.97;65.79;101188.94;5216882;28;20144;-72
2023/05/28 06:23:37;;;;;;;4.82;1.80;;;;;;;19.11;64.50;101184.50;5217243;28;20421;-72
2023/05/28 06:26:08;;;;;;;5.13;1.75;;;;;;;19.61;66.14;101182.25;5216283;28;20215;-72
2023/05/28 06:28:38;;;;;;;4.15;1.52;;;;;;;19.50;65.90;101184.75;5216391;28;20025;-70
2023/05/28 06:31:08;;;;;;;5.47;2.00;;;;;;;19.35;65.30;101175.09;5214759;28;20482;-72
2023/05/28 06:33:39;;;;;;;5.60;1.90;;;;;;;19.26;66.25;101186.25;5216757;28;20031;-71
2023/05/28 06:36:09;;;;;;;6.47;1.70;;;;;;;20.49;61.29;101180.91;5217249;28;20043;-72
2023/05/28 06:38:39;;;;;;;3.25;1.42;;;;;;;21.30;58.35;101180.59;5216644;28;20372;-72
2023/05/28 06:41:10;;;;;;;3.97;1.67;;;;;;;20.13;62.99;101188.63;5198389;28;20095;-71
2023/05/28 06:43:40;;;;;;;3.67;1.40;;;;;;;21.33;60.46;101180.38;5198935;28;20033;-72
2023/05/28 06:46:11;;;;;;;4.13;1.70;;;;;;;21.48;59.26;101182.84;5211957;28;20035;-73
2023/05/28 06:48:41;;;;;;;4.43;1.40;;;;;;;22.15;56.68;101174.38;5215418;28;20075;-72
2023/05/28 06:51:11;;;;;;;3.05;1.40;;;;;;;21.51;58.42;101179.09;5214231;28;20095;-72
2023/05/28 06:53:42;;;;;;;2.33;1.03;;;;;;;21.83;58.06;101185.66;5217400;28;20031;-72
2023/05/28 06:56:12;;;;;;;3.50;1.67;;;;;;;21.21;56.85;101186.56;5216267;28;20815;-70
2023/05/28 06:58:42;;;;;;;2.85;1.65;;;;;;;21.08;57.77;101191.03;5216200;28;20367;-72
2023/05/28 07:01:13;;;;;;;3.63;1.50;;;;;;;21.53;57.78;101188.66;5215526;28;20032;-72
2023/05/28 07:03:43;;;;;;;2.72;1.30;;;;;;;21.91;58.51;101180.63;5216567;28;20384;-71
2023/05/28 07:06:14;;;;;;;4.20;1.58;;;;;;;21.37;58.76;101190.69;5200911;28;20064;-71
2023/05/28 07:08:45;;;;;;;3.97;1.50;;;;;;;22.99;56.88;101186.59;5197074;28;20028;-72
2023/05/28 07:11:15;;;;;;;3.88;1.60;;;;;;;23.60;54.60;101189.72;5214124;28;20083;-71
2023/05/28 07:13:46;;;;;;;2.50;1.50;;;;;;;24.76;52.10;101179.13;5213067;28;20039;-72
2023/05/28 07:16:16;;;;;;;2.08;1.30;;;;;;;23.78;52.11;101192.72;5192566;28;20030;-72
2023/05/28 07:18:47;;;;;;;3.38;1.70;;;;;;;25.27;51.21;101182.72;5204313;28;20024;-72
2023/05/28 07:21:17;;;;;;;3.25;1.50;;;;;;;24.92;51.39;101186.66;5196347;28;20387;-71
2023/05/28 07:23:48;;;;;;;3.38;1.48;;;;;;;24.16;54.17;101187.81;5212683;28;20630;-70
2023/05/28 07:26:18;;;;;;;3.63;1.47;;;;;;;23.73;56.01;101193.09;5175396;28;20549;-72
2023/05/28 07:28:48;;;;;;;3.03;1.13;;;;;;;24.94;53.49;101192.78;5212790;28;20286;-70
2023/05/28 07:31:19;;;;;;;2.67;1.45;;;;;;;25.70;53.58;101186.00;5213746;28;20852;-71
2023/05/28 07:33:50;;;;;;;9.40;1.83;;;;;;;26.60;53.24;101176.91;5212189;28;20276;-72
2023/05/28 07:36:20;;;;;;;3.30;1.45;;;;;;;26.87;52.36;101178.72;5214000;28;20059;-72
2023/05/28 07:38:51;;;;;;;2.58;1.27;;;;;;;24.85;53.77;101180.16;5211157;28;20028;-71
2023/05/28 07:41:21;;;;;;;3.50;1.05;;;;;;;25.83;52.94;101183.94;5199848;28;20118;-72
2023/05/28 07:43:52;;;;;;;5.53;1.70;;;;;;;26.75;50.88;101173.66;5203029;28;21045;-72
2023/05/28 07:46:22;;;;;;;1.88;1.13;;;;;;;28.00;48.00;101170.44;5213090;28;20048;-72
2023/05/28 07:48:52;;;;;;;2.65;1.20;;;;;;;26.97;49.30;101163.44;5213133;28;20083;-72
2023/05/28 07:51:25;;;;;;;3.80;1.30;;;;;;;27.36;49.31;101170.44;5210483;28;20530;-70
2023/05/28 07:53:56;;;;;;;5.45;1.27;;;;;;;26.19;50.13;101161.06;5200490;28;20294;-71
2023/05/28 07:56:27;;;;;;;3.75;1.25;;;;;;;26.57;48.68;101164.63;5213667;28;20029;-71
2023/05/28 07:58:58;;;;;;;3.80;1.30;;;;;;;26.64;48.63;101156.84;5212777;28;20032;-70
2023/05/28 08:01:29;;;;;;;3.40;1.07;;;;;;;26.55;48.78;101163.06;5206289;28;20098;-70
2023/05/28 08:04:00;;;;;;;1.98;1.20;;;;;;;26.09;51.51;101158.34;5204882;28;20298;-71
2023/05/28 08:06:31;;;;;;;2.45;1.15;;;;;;;27.00;47.25;101157.81;5213928;28;20394;-72
2023/05/28 08:09:02;;;;;;;2.38;1.20;;;;;;;27.01;46.29;101154.13;5213530;28;20025;-69
2023/05/28 08:11:33;;;;;;;1.20;0.80;;;;;;;28.78;45.74;101152.56;5215298;28;20376;-71
2023/05/28 08:14:03;;;;;;;3.83;1.50;;;;;;;31.01;44.63;101139.06;5196531;28;20036;-71
2023/05/28 08:16:33;;;;;;;2.10;1.10;;;;;;;30.74;43.55;101133.19;5214940;28;20471;-71
2023/05/28 08:19:03;;;;;;;2.57;1.17;;;;;;;31.67;41.46;101134.19;5213025;28;20309;-69
2023/05/28 08:21:35;;;;;;;3.03;1.23;;;;;;;31.32;42.25;101135.44;5214305;28;20291;-69
2023/05/28 08:24:06;;;;;;;3.80;1.10;;;;;;;30.50;42.24;101143.94;5198016;28;20499;-71
2023/05/28 08:26:37;;;;;;;6.53;1.10;;;;;;;30.49;42.22;101150.34;5201746;28;20312;-71
2023/05/28 08:29:08;;;;;;;1.88;0.88;;;;;;;30.17;40.66;101144.91;5192675;28;20577;-72
2023/05/28 08:31:38;;;;;;;2.30;1.00;;;;;;;30.29;42.70;101143.59;5211850;28;20041;-71
2023/05/28 08:34:08;;;;;;;2.47;1.10;;;;;;;30.92;39.32;101140.91;5195734;28;20033;-72
2023/05/28 08:36:39;;;;;;;4.63;1.23;;;;;;;31.77;37.89;101135.66;5214665;28;20477;-70
2023/05/28 08:39:10;;;;;;;1.52;0.90;;;;;;;30.69;41.11;101135.53;5208630;28;20287;-71
2023/05/28 08:41:40;;;;;;;2.25;1.10;;;;;;;31.40;39.23;101134.56;5213093;28;20091;-71
2023/05/28 08:44:11;;;;;;;2.85;1.17;;;;;;;29.88;40.09;101134.53;5213771;28;20103;-72
2023/05/28 08:46:42;;;;;;;2.95;1.15;;;;;;;28.98;40.92;101144.16;5212881;28;20041;-73
2023/05/28 08:49:17;;;;;;;2.53;1.00;;;;;;;31.35;39.96;101123.47;5205746;28;20025;-72
2023/05/28 08:51:53;;;;;;;3.63;0.98;;;;;;;31.15;39.40;101125.69;5188785;28;20048;-72
2023/05/28 08:54:23;;;;;;;2.03;1.10;;;;;;;29.69;40.42;101128.53;5183249;28;20199;-72
2023/05/28 08:56:54;;;;;;;2.33;1.00;;;;;;;29.47;36.85;101129.13;5191002;28;20554;-72
2023/05/28 08:59:27;;;;;;;2.85;0.90;;;;;;;29.79;36.96;101124.75;5199333;28;20064;-72
2023/05/28 09:01:57;;;;;;;1.95;0.90;;;;;;;30.75;35.93;101118.66;5220525;28;20017;-71
2023/05/28 09:04:27;;;;;;;1.30;0.90;;;;;;;29.42;38.01;101132.28;5217899;28;20044;-71
2023/05/28 09:06:58;;;;;;;1.57;0.80;;;;;;;29.51;39.60;101120.56;5197745;28;20041;-71
2023/05/28 09:09:29;;;;;;;2.13;1.10;;;;;;;30.64;36.74;101116.28;5204004;28;20970;-72
2023/05/28 09:12:06;;;;;;;1.95;1.10;;;;;;;31.38;36.83;101109.59;5214773;28;20267;-72
2023/05/28 09:14:39;;;;;;;1.25;0.80;;;;;;;32.12;38.01;101108.03;5214200;28;20025;-71
2023/05/28 09:17:13;;;;;;;2.10;1.00;;;;;;;29.75;38.81;101111.75;5213102;28;20029;-71
2023/05/28 09:19:53;;;;;;;2.90;0.90;;;;;;;29.81;38.14;101116.47;5211628;28;20029;-72
2023/05/28 09:22:24;;;;;;;4.30;1.02;;;;;;;29.38;39.18;101119.31;5213562;28;20036;-72
2023/05/28 09:24:54;;;;;;;1.40;0.90;;;;;;;29.90;39.32;101110.94;5210006;28;20368;-72
2023/05/28 09:27:27;;;;;;;2.47;0.98;;;;;;;29.41;38.23;101116.28;5211383;28;20095;-71
2023/05/28 09:30:08;;;;;;;2.13;1.00;;;;;;;31.01;37.45;101103.94;5214488;28;20020;-71
2023/05/28 09:32:38;;;;;;;4.07;1.10;;;;;;;29.74;39.71;101110.06;5212333;28;20167;-71
2023/05/28 09:35:09;;;;;;;3.08;1.13;;;;;;;30.32;37.95;101098.22;5201732;28;20021;-71
2023/05/28 09:37:40;;;;;;;2.17;0.95;;;;;;;29.72;39.35;101107.50;5211487;28;20056;-72
2023/05/28 09:40:10;;;;;;;3.25;1.20;;;;;;;27.68;42.61;101111.75;5229521;22;21041;-73
2023/05/28 09:42:42;;;;;;;3.88;1.30;;;;;;;28.73;39.96;101109.13;5203229;28;20059;-76
2023/05/28 09:45:22;;;;;;;2.38;1.13;;;;;;;27.96;40.92;101107.22;5209411;28;20071;-75
2023/05/28 09:47:53;;;;;;;3.45;1.00;;;;;;;28.52;40.37;101103.25;5209148;28;20158;-73
2023/05/28 09:50:23;;;;;;;3.70;1.30;;;;;;;27.81;42.07;101106.03;5215598;28;20040;-74
2023/05/28 09:52:55;;;;;;;2.47;1.15;;;;;;;27.04;44.05;101112.69;5203660;28;20064;-76
2023/05/28 09:55:27;;;;;;;3.90;1.48;;;;;;;27.90;42.81;101103.28;5196825;28;20052;-73
2023/05/28 09:58:03;;;;;;;2.58;1.10;;;;;;;26.85;43.73;101108.25;5207498;28;20263;-75
2023/05/28 10:00:37;;;;;;;3.38;1.25;;;;;;;27.90;42.15;101105.13;5205285;28;20029;-75
2023/05/28 10:03:22;;;;;;;3.40;1.30;;;;;;;26.91;44.39;101099.59;5201628;28;20125;-76
2023/05/28 10:05:59;;;;;;;7.15;1.52;;;;;;;26.91;44.98;101091.56;5187626;28;20238;-74
2023/05/28 10:08:38;;;;;;;4.10;1.23;;;;;;;26.97;42.89;101092.81;5205407;28;20063;-74
2023/05/28 10:11:13;;;;;;;2.60;1.00;;;;;;;26.70;44.29;101089.22;5203772;28;20477;-72
2023/05/28 10:13:43;;;;;;;2.85;1.25;;;;;;;26.77;43.03;101083.13;5210837;28;20487;-76
2023/05/28 10:16:14;;;;;;;5.18;1.55;;;;;;;26.11;46.54;101096.56;5208594;28;20043;-74
2023/05/28 10:18:44;;;;;;;3.25;1.30;;;;;;;25.48;46.25;101092.47;5208733;28;20056;-75
2023/05/28 10:21:15;;;;;;;2.60;1.00;;;;;;;26.07;45.54;101079.94;5196433;28;20031;-75
2023/05/28 10:23:46;;;;;;;5.20;1.30;;;;;;;25.83;44.97;101087.47;5207211;28;20434;-75
2023/05/28 10:26:18;;;;;;;3.25;1.00;;;;;;;25.89;44.04;101081.63;5203540;28;20071;-73
2023/05/28 10:28:55;;;;;;;3.85;1.10;;;;;;;26.09;45.07;101090.50;5208933;28;20021;-72
2023/05/28 10:31:26;;;;;;;2.55;1.20;;;;;;;24.61;47.69;101096.69;5205500;28;23889;-74
2023/05/28 10:33:57;;;;;;;2.92;1.13;;;;;;;24.94;45.64;101093.78;5209419;28;20021;-75
2023/05/28 10:36:28;;;;;;;3.50;1.20;;;;;;;25.20;46.13;101089.69;5211614;28;20035;-72
2023/05/28 10:38:59;;;;;;;2.58;1.10;;;;;;;25.00;46.47;101090.56;5204781;28;20490;-72
2023/05/28 10:41:33;;;;;;;3.58;1.30;;;;;;;24.65;46.48;101083.88;5204362;28;20025;-74
2023/05/28 10:44:07;;;;;;;2.60;1.13;;;;;;;24.63;45.32;101088.50;5201860;28;20040;-74
2023/05/28 10:46:38;;;;;;;2.88;1.13;;;;;;;24.87;46.34;101096.13;5209538;28;20048;-74
2023/05/28 10:49:16;;;;;;;3.67;1.38;;;;;;;24.73;46.36;101099.16;5210473;28;20638;-74
2023/05/28 10:52:00;;;;;;;3.40;1.10;;;;;;;23.65;49.40;101094.09;5200496;28;20079;-75
2023/05/28 10:54:33;;;;;;;2.90;1.20;;;;;;;23.36;48.63;101097.41;5199747;28;20021;-74
2023/05/28 10:57:12;;;;;;;3.03;1.30;;;;;;;23.94;46.78;101092.59;5209071;28;20119;-75
2023/05/28 10:59:59;;;;;;;6.82;1.20;;;;;;;24.15;48.31;101090.81;5209621;28;20025;-75
2023/05/28 11:02:34;;;;;;;2.67;1.10;;;;;;;24.35;48.24;101095.31;5207319;28;20028;-74
2023/05/28 11:05:05;;;;;;;3.38;1.30;;;;;;;24.01;48.73;101091.09;5211049;28;20024;-76
2023/05/28 11:07:37;;;;;;;5.00;1.20;;;;;;;24.07;47.99;101097.75;5192752;28;20091;-75
2023/05/28 11:10:14;;;;;;;1.90;1.13;;;;;;;23.96;48.42;101095.13;5203655;28;20446;-71
2023/05/28 11:12:47;;;;;;;4.03;1.00;;;;;;;24.19;48.46;101091.41;5195701;28;20429;-72
2023/05/28 11:15:17;;;;;;;4.40;1.20;;;;;;;24.36;48.69;101086.31;5201565;28;20351;-74
2023/05/28 11:17:49;;;;;;;2.45;1.15;;;;;;;24.37;47.61;101092.53;5206855;28;20029;-72
2023/05/28 11:20:25;;;;;;;4.63;1.40;;;;;;;24.29;47.77;101095.84;5209656;28;20278;-73
2023/05/28 11:22:55;;;;;;;2.92;1.05;;;;;;;24.14;49.89;101088.25;5200759;28;20035;-76
2023/05/28 11:25:25;;;;;;;2.25;0.90;;;;;;;24.34;48.89;101087.41;5199948;28;20025;-73
2023/05/28 11:28:00;;;;;;;6.97;1.47;;;;;;;24.11;46.92;101091.19;5199168;28;20037;-75
2023/05/28 11:30:30;;;;;;;7.32;1.20;;;;;;;24.26;48.40;101087.22;5206472;28;20901;-73
2023/05/28 11:33:02;;;;;;;3.08;1.20;;;;;;;24.37;48.09;101081.84;5209314;28;20025;-74
2023/05/28 11:35:32;;;;;;;3.72;1.20;;;;;;;23.86;47.69;101079.00;5203962;28;20040;-74
2023/05/28 11:38:02;;;;;;;3.47;1.20;;;;;;;23.98;48.12;101093.16;5208218;28;20036;-74
2023/05/28 11:40:34;;;;;;;2.53;1.30;;;;;;;24.02;47.59;101078.59;5197277;28;20287;-73
2023/05/28 11:43:05;;;;;;;2.83;1.20;;;;;;;24.58;48.04;101077.38;5199152;28;20032;-76
2023/05/28 11:45:39;;;;;;;3.70;1.20;;;;;;;24.77;48.63;101067.66;5204017;28;20041;-73